Time;durP1;ratioP1;P1;durP2;ratioP2;P2;SDS_P1;SDS_P2;PMS_P1;PMS_P2;Temp;Humidity;BMP_temperature;BMP_pressure;BME280_temperature;BME280_humidity;BME280_pressure;Samples;Min_cycle;Max_cycle;Signal;HPM_P1;HPM_P2
2022/04/25 00:01:04;;;;;;;8.93;3.30;;;;;;;;;;5095832;28;20035;-59
2022/04/25 00:03:29;;;;;;;3.95;3.00;;;;;;;;;;5095934;28;20516;-59
2022/04/25 00:05:55;;;;;;;10.63;3.53;;;;;;;;;;5095662;28;20024;-59
2022/04/25 00:08:21;;;;;;;12.35;3.33;;;;;;;;;;5095572;28;20046;-56
2022/04/25 00:10:46;;;;;;;6.43;2.55;;;;;;;;;;5095696;28;20419;-59
2022/04/25 00:13:13;;;;;;;4.53;2.75;;;;;;;;;;5095402;28;20024;-59
2022/04/25 00:15:40;;;;;;;10.30;3.10;;;;;;;;;;5095696;28;20424;-59
2022/04/25 00:18:05;;;;;;;10.15;3.00;;;;;;;;;;5095271;28;20490;-59
2022/04/25 00:20:31;;;;;;;10.70;2.85;;;;;;;;;;5095173;28;20032;-57
2022/04/25 00:22:56;;;;;;;4.32;3.22;;;;;;;;;;5095494;28;20032;-55
2022/04/25 00:25:22;;;;;;;6.75;2.65;;;;;;;;;;5095185;28;20117;-57
2022/04/25 00:27:47;;;;;;;6.90;2.30;;;;;;;;;;5095249;28;20027;-52
2022/04/25 00:30:13;;;;;;;4.32;2.47;;;;;;;;;;5095158;28;20032;-58
2022/04/25 00:32:38;;;;;;;6.40;2.50;;;;;;;;;;5095089;28;20020;-59
2022/04/25 00:35:05;;;;;;;11.15;3.03;;;;;;;;;;5094990;28;20055;-59
2022/04/25 00:37:31;;;;;;;5.10;2.25;;;;;;;;;;5095210;28;20450;-58
2022/04/25 00:39:56;;;;;;;8.70;2.50;;;;;;;;;;5094822;28;20060;-58
2022/04/25 00:42:22;;;;;;;6.05;2.35;;;;;;;;;;5094898;28;20024;-57
2022/04/25 00:44:47;;;;;;;4.72;2.72;;;;;;;;;;5094867;28;20028;-58
2022/04/25 00:47:14;;;;;;;7.47;2.55;;;;;;;;;;5094567;28;20467;-57
2022/04/25 00:49:39;;;;;;;4.65;2.58;;;;;;;;;;5094598;28;20055;-59
2022/04/25 00:52:05;;;;;;;3.13;2.50;;;;;;;;;;5094720;28;20403;-58
2022/04/25 00:54:32;;;;;;;4.93;2.30;;;;;;;;;;5094898;28;20060;-58
2022/04/25 00:56:57;;;;;;;8.48;2.60;;;;;;;;;;5094565;28;20089;-58
2022/04/25 00:59:24;;;;;;;8.63;2.63;;;;;;;;;;5094624;28;20032;-44
2022/04/25 01:01:51;;;;;;;6.65;2.70;;;;;;;;;;5094422;28;20031;-47
2022/04/25 01:04:20;;;;;;;7.53;2.75;;;;;;;;;;5094347;28;20077;-58
2022/04/25 01:06:46;;;;;;;6.95;2.92;;;;;;;;;;5094596;28;20039;-51
2022/04/25 01:09:11;;;;;;;4.63;2.88;;;;;;;;;;5094274;28;20515;-48
2022/04/25 01:11:37;;;;;;;10.05;2.83;;;;;;;;;;5094140;28;20040;-52
2022/04/25 01:14:17;;;;;;;9.35;3.35;;;;;;;;;;5092552;28;20028;-57
2022/04/25 01:16:43;;;;;;;5.40;2.75;;;;;;;;;;5093593;28;20030;-51
2022/04/25 01:19:09;;;;;;;4.18;2.42;;;;;;;;;;5092645;28;20409;-56
2022/04/25 01:22:07;;;;;;;5.13;2.00;;;;;;;;;;5094255;28;20039;-58
2022/04/25 01:27:17;;;;;;;4.78;2.03;;;;;;;;;;5094067;28;20502;-52
2022/04/25 01:29:46;;;;;;;3.45;1.77;;;;;;;;;;5093924;28;20119;-58
2022/04/25 01:32:12;;;;;;;3.80;1.75;;;;;;;;;;5094101;28;20028;-58
2022/04/25 01:34:38;;;;;;;6.15;2.25;;;;;;;;;;5094129;28;20426;-58
2022/04/25 01:37:09;;;;;;;4.22;2.00;;;;;;;;;;5094018;28;20020;-56
2022/04/25 01:39:35;;;;;;;;;;;;;;;;;;5094154;28;20031;-58
2022/04/25 01:42:01;;;;;;;4.68;1.60;;;;;;;;;;5094005;28;20015;-58
2022/04/25 01:44:26;;;;;;;3.05;1.48;;;;;;;;;;5093902;28;20043;-58
2022/04/25 01:46:52;;;;;;;8.15;2.10;;;;;;;;;;5093591;28;20066;-54
2022/04/25 01:49:17;;;;;;;4.47;1.80;;;;;;;;;;5093409;28;20052;-56
2022/04/25 01:51:44;;;;;;;2.75;1.70;;;;;;;;;;5093661;28;20028;-59
2022/04/25 01:54:09;;;;;;;7.38;2.38;;;;;;;;;;5091773;28;20035;-57
2022/04/25 01:56:35;;;;;;;8.75;1.98;;;;;;;;;;5092374;28;20024;-58
2022/04/25 01:59:00;;;;;;;8.10;2.17;;;;;;;;;;5091904;28;20023;-58
2022/04/25 02:01:25;;;;;;;6.50;1.90;;;;;;;;;;5092387;28;20103;-58
2022/04/25 02:03:51;;;;;;;3.58;2.00;;;;;;;;;;5093596;28;20411;-58
2022/04/25 02:06:16;;;;;;;3.50;1.90;;;;;;;;;;5093293;28;20383;-57
2022/04/25 02:08:43;;;;;;;5.05;2.35;;;;;;;;;;5093225;28;20016;-56
2022/04/25 02:11:22;;;;;;;5.00;1.90;;;;;;;;;;5093125;28;20459;-58
2022/04/25 02:13:54;;;;;;;7.07;1.88;;;;;;;;;;5093182;28;20498;-56
2022/04/25 02:16:21;;;;;;;3.17;2.40;;;;;;;;;;5093059;28;20039;-59
2022/04/25 02:18:46;;;;;;;8.35;2.28;;;;;;;;;;5093277;28;20024;-58
2022/04/25 02:21:12;;;;;;;3.45;1.83;;;;;;;;;;5093163;28;20038;-56
2022/04/25 02:23:38;;;;;;;4.32;2.33;;;;;;;;;;5092985;28;20104;-58
2022/04/25 02:26:05;;;;;;;5.93;1.95;;;;;;;;;;5092961;28;20024;-58
2022/04/25 02:28:31;;;;;;;2.92;1.77;;;;;;;;;;5093175;28;20383;-56
2022/04/25 02:30:58;;;;;;;4.70;1.85;;;;;;;;;;5092921;28;20077;-59
2022/04/25 02:33:24;;;;;;;4.32;2.47;;;;;;;;;;5093092;28;20024;-58
2022/04/25 02:35:50;;;;;;;2.67;1.77;;;;;;;;;;5092804;28;20383;-58
2022/04/25 02:38:15;;;;;;;6.22;2.30;;;;;;;;;;5093029;28;20103;-58
2022/04/25 02:40:40;;;;;;;3.25;1.80;;;;;;;;;;5074867;28;20455;-58
2022/04/25 02:43:06;;;;;;;4.50;1.80;;;;;;;;;;5092965;28;20442;-58
2022/04/25 02:45:31;;;;;;;2.90;1.88;;;;;;;;;;5092647;28;20428;-58
2022/04/25 02:47:57;;;;;;;4.38;1.65;;;;;;;;;;5092692;28;20106;-58
2022/04/25 02:50:22;;;;;;;3.28;1.65;;;;;;;;;;5074518;28;20020;-58
2022/04/25 02:52:53;;;;;;;5.43;1.80;;;;;;;;;;5092881;28;20024;-58
2022/04/25 02:55:18;;;;;;;1.65;1.27;;;;;;;;;;5092901;28;20031;-57
2022/04/25 02:57:44;;;;;;;2.70;1.70;;;;;;;;;;5092826;28;20028;-57
2022/04/25 03:00:10;;;;;;;2.08;1.20;;;;;;;;;;5092414;28;20039;-57
2022/04/25 03:02:36;;;;;;;6.05;1.23;;;;;;;;;;5074617;28;20029;-58
2022/04/25 03:05:02;;;;;;;2.25;1.27;;;;;;;;;;5092494;28;20024;-58
2022/04/25 03:07:27;;;;;;;5.50;1.77;;;;;;;;;;5093445;28;20024;-57
2022/04/25 03:09:53;;;;;;;2.65;1.38;;;;;;;;;;5096936;28;20038;-57
2022/04/25 03:12:18;;;;;;;7.07;1.50;;;;;;;;;;5096870;28;20027;-57
2022/04/25 03:14:45;;;;;;;3.13;1.45;;;;;;;;;;5078343;28;20028;-58
2022/04/25 03:17:11;;;;;;;2.33;1.17;;;;;;;;;;5096759;28;20028;-55
2022/04/25 03:19:37;;;;;;;3.65;1.45;;;;;;;;;;5096323;28;20455;-56
2022/04/25 03:22:06;;;;;;;4.88;1.60;;;;;;;;;;5096380;28;20028;-57
2022/04/25 03:24:31;;;;;;;4.93;1.60;;;;;;;;;;5096401;28;20102;-58
2022/04/25 03:26:57;;;;;;;9.35;1.83;;;;;;;;;;5096260;28;20119;-57
2022/04/25 03:29:23;;;;;;;4.40;1.70;;;;;;;;;;5096224;28;20024;-59
2022/04/25 03:31:48;;;;;;;4.00;1.75;;;;;;;;;;5096490;28;20034;-58
2022/04/25 03:34:14;;;;;;;2.05;1.33;;;;;;;;;;5096159;28;20093;-57
2022/04/25 03:36:39;;;;;;;5.47;1.75;;;;;;;;;;5096421;28;20039;-57
2022/04/25 03:39:05;;;;;;;4.50;1.80;;;;;;;;;;5096136;28;20430;-57
2022/04/25 03:41:31;;;;;;;4.53;1.20;;;;;;;;;;5096238;28;20036;-58
2022/04/25 03:43:57;;;;;;;1.92;1.33;;;;;;;;;;5096328;28;20356;-58
2022/04/25 03:46:22;;;;;;;2.20;1.10;;;;;;;;;;5096275;28;20024;-59
2022/04/25 03:48:48;;;;;;;1.73;1.30;;;;;;;;;;5095868;28;20123;-56
2022/04/25 03:51:14;;;;;;;4.60;1.45;;;;;;;;;;5096151;28;20043;-57
2022/04/25 03:53:40;;;;;;;2.92;1.10;;;;;;;;;;5095851;28;20024;-58
2022/04/25 03:58:50;;;;;;;2.60;1.20;;;;;;;;;;5096068;28;20031;-55
2022/04/25 04:01:16;;;;;;;5.32;1.80;;;;;;;;;;5095556;28;20028;-58
2022/04/25 04:03:41;;;;;;;4.90;1.73;;;;;;;;;;5095657;28;20024;-57
2022/04/25 04:06:11;;;;;;;2.88;1.50;;;;;;;;;;5095878;28;20056;-58
2022/04/25 04:08:37;;;;;;;5.35;1.58;;;;;;;;;;5095935;28;20012;-57
2022/04/25 04:11:05;;;;;;;1.70;1.20;;;;;;;;;;5095723;28;20024;-57
2022/04/25 04:13:30;;;;;;;1.13;1.02;;;;;;;;;;5095674;28;20119;-42
2022/04/25 04:15:56;;;;;;;6.03;1.60;;;;;;;;;;5095647;28;20059;-57
2022/04/25 04:18:23;;;;;;;1.92;1.25;;;;;;;;;;5094738;28;20016;-55
2022/04/25 04:20:49;;;;;;;1.98;1.55;;;;;;;;;;5095448;28;20439;-56
2022/04/25 04:23:15;;;;;;;1.20;1.10;;;;;;;;;;5077103;28;20024;-57
2022/04/25 04:25:40;;;;;;;3.08;1.48;;;;;;;;;;5095064;28;20028;-50
2022/04/25 04:28:06;;;;;;;2.85;1.50;;;;;;;;;;5095120;28;20183;-57
2022/04/25 04:30:33;;;;;;;3.35;1.50;;;;;;;;;;5095338;28;20025;-56
2022/04/25 04:32:58;;;;;;;4.90;1.48;;;;;;;;;;5095295;28;20024;-53
2022/04/25 04:38:09;;;;;;;7.05;1.50;;;;;;;;;;5095294;28;20093;-57
2022/04/25 04:40:34;;;;;;;5.18;2.22;;;;;;;;;;5094845;28;20531;-51
2022/04/25 04:43:00;;;;;;;6.97;1.80;;;;;;;;;;5095138;28;20113;-56
2022/04/25 04:45:26;;;;;;;7.85;1.77;;;;;;;;;;5094749;28;20050;-52
2022/04/25 04:47:51;;;;;;;3.97;1.60;;;;;;;;;;5094872;28;20032;-56
2022/04/25 04:50:17;;;;;;;5.07;1.23;;;;;;;;;;5094967;28;20134;-54
2022/04/25 04:52:47;;;;;;;1.58;1.33;;;;;;;;;;5095149;28;20121;-56
2022/04/25 04:55:13;;;;;;;;;;;;;;;;;;5095356;28;20032;-57
2022/04/25 04:57:39;;;;;;;1.98;1.50;;;;;;;;;;5093274;28;19912;-57
2022/04/25 05:00:15;;;;;;;4.47;1.40;;;;;;;;;;5094661;28;20034;-55
2022/04/25 05:02:41;;;;;;;6.93;3.80;;;;;;;;;;5094719;28;20411;-56
2022/04/25 05:05:07;;;;;;;1.65;1.23;;;;;;;;;;5076345;28;20503;-55
2022/04/25 05:07:35;;;;;;;1.55;0.98;;;;;;;;;;5094642;28;20054;-49
2022/04/25 05:10:02;;;;;;;5.47;1.40;;;;;;;;;;5076722;28;20063;-56
2022/04/25 05:12:27;;;;;;;2.25;1.17;;;;;;;;;;5094538;28;20020;-50
2022/04/25 05:14:54;;;;;;;2.47;1.20;;;;;;;;;;5094429;28;20074;-50
2022/04/25 05:17:19;;;;;;;5.15;1.40;;;;;;;;;;5092426;28;20027;-57
2022/04/25 05:19:45;;;;;;;2.08;1.10;;;;;;;;;;5092589;28;20032;-59
2022/04/25 05:22:10;;;;;;;2.00;1.17;;;;;;;;;;5093747;28;20052;-53
2022/04/25 05:24:36;;;;;;;2.35;1.20;;;;;;;;;;5093868;28;20031;-56
2022/04/25 05:27:02;;;;;;;2.72;1.40;;;;;;;;;;5093679;28;20189;-56
2022/04/25 05:29:27;;;;;;;2.25;1.05;;;;;;;;;;5092249;28;20491;-55
2022/04/25 05:31:52;;;;;;;1.67;0.90;;;;;;;;;;5091495;28;20023;-58
2022/04/25 05:34:18;;;;;;;3.35;1.30;;;;;;;;;;5093306;28;20492;-58
2022/04/25 05:36:44;;;;;;;2.70;1.15;;;;;;;;;;5088276;28;20050;-56
2022/04/25 05:39:09;;;;;;;1.30;1.20;;;;;;;;;;5091855;28;20482;-56
2022/04/25 05:41:37;;;;;;;4.95;0.98;;;;;;;;;;5092412;28;20348;-55
2022/04/25 05:44:03;;;;;;;2.50;1.17;;;;;;;;;;5092265;28;20031;-49
2022/04/25 05:46:30;;;;;;;1.55;0.90;;;;;;;;;;5092038;28;20168;-51
2022/04/25 05:54:24;;;;;;;3.67;1.10;;;;;;;;;;5092108;28;20375;-44
2022/04/25 05:56:49;;;;;;;1.98;1.23;;;;;;;;;;5091896;28;20024;-46
2022/04/25 05:59:18;;;;;;;2.40;1.13;;;;;;;;;;5091390;28;20027;-56
2022/04/25 06:01:44;;;;;;;1.08;0.95;;;;;;;;;;5091741;28;20036;-54
2022/04/25 06:04:09;;;;;;;1.15;0.98;;;;;;;;;;5091932;28;20575;-53
2022/04/25 06:06:34;;;;;;;3.65;1.00;;;;;;;;;;5091555;28;20637;-55
2022/04/25 06:09:01;;;;;;;5.28;1.10;;;;;;;;;;5091604;28;20028;-57
2022/04/25 06:11:26;;;;;;;2.72;1.17;;;;;;;;;;5091673;28;20360;-49
2022/04/25 06:13:52;;;;;;;2.03;0.70;;;;;;;;;;5091534;28;20065;-47
2022/04/25 06:16:17;;;;;;;1.85;0.93;;;;;;;;;;5091289;28;20057;-46
2022/04/25 06:18:42;;;;;;;1.40;0.95;;;;;;;;;;5090880;28;20028;-51
2022/04/25 06:21:08;;;;;;;1.75;0.80;;;;;;;;;;5091233;28;20036;-53
2022/04/25 06:23:34;;;;;;;3.35;1.00;;;;;;;;;;5091608;28;20024;-51
2022/04/25 06:25:59;;;;;;;2.95;0.88;;;;;;;;;;5091544;28;20443;-58
2022/04/25 06:28:25;;;;;;;2.65;0.90;;;;;;;;;;5091014;28;20031;-52
2022/04/25 06:30:51;;;;;;;4.40;1.45;;;;;;;;;;5091505;28;20506;-56
2022/04/25 06:33:17;;;;;;;2.28;0.95;;;;;;;;;;5091490;28;20028;-52
2022/04/25 06:35:43;;;;;;;2.90;1.10;;;;;;;;;;5091304;28;20032;-52
2022/04/25 06:38:08;;;;;;;1.33;0.88;;;;;;;;;;5091514;28;20467;-52
2022/04/25 06:40:34;;;;;;;2.28;0.80;;;;;;;;;;5091200;28;20067;-58
2022/04/25 06:42:59;;;;;;;3.20;1.02;;;;;;;;;;5090883;28;20089;-55
2022/04/25 06:45:25;;;;;;;2.40;1.27;;;;;;;;;;5091192;28;20039;-58
2022/04/25 06:47:50;;;;;;;3.60;1.55;;;;;;;;;;5091042;28;20112;-58
2022/04/25 06:50:16;;;;;;;3.40;1.20;;;;;;;;;;5091254;28;20130;-52
2022/04/25 06:52:42;;;;;;;7.07;1.70;;;;;;;;;;5091048;28;20032;-56
2022/04/25 06:55:08;;;;;;;4.55;1.10;;;;;;;;;;5089782;28;20475;-54
2022/04/25 06:57:34;;;;;;;3.00;1.05;;;;;;;;;;5091196;28;20073;-57
2022/04/25 07:00:08;;;;;;;3.05;0.90;;;;;;;;;;5090832;28;20373;-57
2022/04/25 07:02:34;;;;;;;2.05;1.02;;;;;;;;;;5090916;28;20067;-46
2022/04/25 07:04:59;;;;;;;3.38;1.30;;;;;;;;;;5091234;28;20066;-46
2022/04/25 07:07:25;;;;;;;2.42;1.15;;;;;;;;;;5091179;28;20111;-54
2022/04/25 07:09:50;;;;;;;5.15;1.23;;;;;;;;;;5072620;28;20047;-60
2022/04/25 07:12:16;;;;;;;5.22;1.30;;;;;;;;;;5091068;28;20031;-58
2022/04/25 07:14:41;;;;;;;5.22;1.10;;;;;;;;;;5090779;28;20066;-51
2022/04/25 07:17:07;;;;;;;5.15;1.38;;;;;;;;;;5090433;28;20475;-56
2022/04/25 07:19:32;;;;;;;1.08;0.73;;;;;;;;;;5090739;28;20387;-57
2022/04/25 07:30:10;;;;;;;3.67;1.00;;;;;;;;;;5090628;28;20453;-53
2022/04/25 07:32:39;;;;;;;2.08;0.60;;;;;;;;;;5090817;28;20032;-56
2022/04/25 07:35:08;;;;;;;1.33;0.80;;;;;;;;;;5090649;28;20024;-55
2022/04/25 07:37:34;;;;;;;2.95;0.90;;;;;;;;;;5090476;28;20032;-55
2022/04/25 07:40:00;;;;;;;1.85;0.90;;;;;;;;;;5090525;28;20632;-46
2022/04/25 07:42:26;;;;;;;1.52;1.10;;;;;;;;;;5089911;28;20020;-57
2022/04/25 07:44:51;;;;;;;2.33;1.00;;;;;;;;;;5090291;28;20407;-58
2022/04/25 07:47:17;;;;;;;5.88;0.90;;;;;;;;;;5090392;28;20024;-58
2022/04/25 07:49:42;;;;;;;3.13;0.95;;;;;;;;;;5090172;28;20449;-58
2022/04/25 07:52:09;;;;;;;0.70;0.70;;;;;;;;;;5090223;28;20555;-56
2022/04/25 07:54:34;;;;;;;1.20;0.70;;;;;;;;;;5092769;28;20028;-57
2022/04/25 07:57:01;;;;;;;1.23;0.90;;;;;;;;;;5094298;28;20051;-54
2022/04/25 07:59:26;;;;;;;0.77;0.60;;;;;;;;;;5093824;28;20490;-52
2022/04/25 08:01:52;;;;;;;0.93;0.70;;;;;;;;;;5093442;28;20031;-54
2022/04/25 08:04:17;;;;;;;2.42;0.82;;;;;;;;;;5093934;28;20028;-54
2022/04/25 08:06:43;;;;;;;0.70;0.70;;;;;;;;;;5075648;28;20122;-56
2022/04/25 08:09:08;;;;;;;3.38;1.10;;;;;;;;;;5094219;28;20059;-56
2022/04/25 08:11:34;;;;;;;1.50;1.10;;;;;;;;;;5093395;28;20502;-46
2022/04/25 08:19:35;;;;;;;1.58;0.93;;;;;;;;;;5068384;28;20040;-55
2022/04/25 08:22:01;;;;;;;1.10;1.00;;;;;;;;;;5093605;28;20039;-52
2022/04/25 08:24:27;;;;;;;5.60;1.50;;;;;;;;;;5093864;28;20039;-52
2022/04/25 08:26:54;;;;;;;2.42;1.20;;;;;;;;;;5093430;28;20028;-49
2022/04/25 08:29:19;;;;;;;4.15;1.45;;;;;;;;;;5075942;28;20032;-51
2022/04/25 08:31:45;;;;;;;2.17;1.10;;;;;;;;;;5093417;28;20032;-54
2022/04/25 08:34:10;;;;;;;6.93;1.35;;;;;;;;;;5093217;28;20043;-54
2022/04/25 08:36:35;;;;;;;1.52;1.00;;;;;;;;;;5093231;28;20387;-56
2022/04/25 08:39:02;;;;;;;1.42;1.00;;;;;;;;;;5093575;28;20037;-47
2022/04/25 08:41:51;;;;;;;0.80;0.80;;;;;;;;;;5093108;28;20515;-51
2022/04/25 08:44:18;;;;;;;2.43;1.10;;;;;;;;;;5093286;28;20032;-49
2022/04/25 08:46:49;;;;;;;4.65;1.17;;;;;;;;;;5093142;28;20540;-48
2022/04/25 08:49:16;;;;;;;1.20;1.10;;;;;;;;;;5092511;28;20097;-57
2022/04/25 08:51:42;;;;;;;5.68;1.13;;;;;;;;;;5093037;28;20495;-54
2022/04/25 08:54:10;;;;;;;0.90;0.80;;;;;;;;;;5093223;28;20031;-51
2022/04/25 08:56:38;;;;;;;1.23;0.95;;;;;;;;;;5093254;28;20028;-57
2022/04/25 08:59:06;;;;;;;3.42;0.95;;;;;;;;;;5093107;28;20048;-47
2022/04/25 09:01:32;;;;;;;1.58;1.00;;;;;;;;;;5092602;28;20041;-51
2022/04/25 09:03:59;;;;;;;1.58;1.48;;;;;;;;;;5092472;28;20509;-52
2022/04/25 09:06:24;;;;;;;3.05;1.10;;;;;;;;;;5092717;28;20095;-57
2022/04/25 09:08:49;;;;;;;1.33;1.05;;;;;;;;;;5092562;28;20112;-55
2022/04/25 09:14:00;;;;;;;1.85;1.15;;;;;;;;;;5092916;28;20513;-51
2022/04/25 09:16:25;;;;;;;1.15;0.90;;;;;;;;;;5092756;28;20103;-53
2022/04/25 09:18:50;;;;;;;2.92;1.10;;;;;;;;;;5092666;28;20105;-47
2022/04/25 09:21:16;;;;;;;2.03;1.10;;;;;;;;;;5092718;28;20047;-44
2022/04/25 09:23:42;;;;;;;3.45;1.00;;;;;;;;;;5092653;28;20048;-43
2022/04/25 09:26:15;;;;;;;2.70;1.10;;;;;;;;;;5073426;28;20383;-54
2022/04/25 09:28:52;;;;;;;4.25;1.30;;;;;;;;;;5092661;28;20040;-46
2022/04/25 09:31:19;;;;;;;3.22;1.70;;;;;;;;;;5092262;28;20028;-50
2022/04/25 09:33:45;;;;;;;3.15;1.38;;;;;;;;;;5092617;28;20035;-45
2022/04/25 09:36:11;;;;;;;5.72;2.38;;;;;;;;;;5092855;28;20031;-43
2022/04/25 09:38:40;;;;;;;3.92;2.80;;;;;;;;;;5093150;28;20471;-43
2022/04/25 09:41:13;;;;;;;4.32;1.88;;;;;;;;;;5093921;28;20100;-45
2022/04/25 09:43:41;;;;;;;4.57;1.80;;;;;;;;;;5093579;28;20020;-46
2022/04/25 09:46:09;;;;;;;2.13;1.58;;;;;;;;;;5092577;28;20063;-42
2022/04/25 09:48:36;;;;;;;2.20;2.00;;;;;;;;;;5093333;28;20040;-49
2022/04/25 09:51:08;;;;;;;2.28;1.65;;;;;;;;;;5093747;28;20016;-47
2022/04/25 09:53:50;;;;;;;11.57;4.93;;;;;;;;;;5093509;28;20544;-47
2022/04/25 09:56:20;;;;;;;2.90;1.70;;;;;;;;;;5093730;28;20032;-50
2022/04/25 09:59:01;;;;;;;;;;;;;;;;;;5093776;28;20103;-50
2022/04/25 10:01:27;;;;;;;3.65;1.20;;;;;;;;;;5075016;28;19927;-42
2022/04/25 10:03:52;;;;;;;2.67;1.10;;;;;;;;;;5075102;28;20550;-49
2022/04/25 10:06:20;;;;;;;1.55;1.33;;;;;;;;;;5093173;28;20146;-45
2022/04/25 10:08:47;;;;;;;3.70;0.85;;;;;;;;;;5093128;28;20020;-48
2022/04/25 10:11:13;;;;;;;1.10;1.10;;;;;;;;;;5098527;28;20049;-51
2022/04/25 10:13:38;;;;;;;1.50;0.80;;;;;;;;;;5112275;28;20023;-47
2022/04/25 10:16:04;;;;;;;0.95;0.93;;;;;;;;;;5112978;28;20513;-51
2022/04/25 10:18:31;;;;;;;1.73;1.23;;;;;;;;;;5113058;28;20421;-49
2022/04/25 10:20:58;;;;;;;0.77;0.70;;;;;;;;;;5113431;28;20119;-53
2022/04/25 10:23:25;;;;;;;0.70;0.70;;;;;;;;;;5113435;28;20069;-46
2022/04/25 10:25:57;;;;;;;1.30;1.17;;;;;;;;;;5113085;28;20028;-43
2022/04/25 10:28:56;;;;;;;2.22;1.42;;;;;;;;;;5113044;28;20490;-46
2022/04/25 10:31:24;;;;;;;2.75;0.80;;;;;;;;;;5112276;28;20043;-47
2022/04/25 10:33:54;;;;;;;1.45;0.80;;;;;;;;;;5112293;28;20382;-45
2022/04/25 10:36:38;;;;;;;0.65;0.65;;;;;;;;;;5094855;28;20026;-48
2022/04/25 10:39:45;;;;;;;1.77;0.75;;;;;;;;;;5113232;28;20043;-52
2022/04/25 10:44:56;;;;;;;0.90;0.90;;;;;;;;;;5113117;28;20068;-50
2022/04/25 10:47:23;;;;;;;0.77;0.70;;;;;;;;;;5112883;28;20402;-46
2022/04/25 10:49:51;;;;;;;1.20;1.20;;;;;;;;;;5112337;28;20444;-50
2022/04/25 10:55:23;;;;;;;1.08;0.80;;;;;;;;;;5113299;28;20036;-48
2022/04/25 10:58:04;;;;;;;2.42;1.20;;;;;;;;;;5113118;28;20099;-46
2022/04/25 11:00:36;;;;;;;1.00;1.00;;;;;;;;;;5113099;28;20031;-45
2022/04/25 11:03:07;;;;;;;0.80;0.80;;;;;;;;;;5111928;28;20454;-49
2022/04/25 11:05:37;;;;;;;1.60;1.00;;;;;;;;;;5112973;28;20064;-44
2022/04/25 11:08:21;;;;;;;1.85;1.20;;;;;;;;;;5112610;28;20031;-45
2022/04/25 11:11:08;;;;;;;1.60;1.50;;;;;;;;;;5112512;28;20028;-46
2022/04/25 11:14:01;;;;;;;2.50;0.95;;;;;;;;;;5112554;28;20028;-46
2022/04/25 11:16:28;;;;;;;1.35;1.00;;;;;;;;;;5112557;28;20027;-42
2022/04/25 11:19:05;;;;;;;2.85;1.05;;;;;;;;;;5112619;28;20537;-43
2022/04/25 11:21:32;;;;;;;2.35;1.20;;;;;;;;;;5112898;28;20398;-48
2022/04/25 11:24:01;;;;;;;3.70;0.60;;;;;;;;;;5112463;28;20063;-46
2022/04/25 11:26:26;;;;;;;2.40;0.85;;;;;;;;;;5112778;28;20020;-44
2022/04/25 11:28:55;;;;;;;0.63;0.60;;;;;;;;;;5114518;28;20105;-50
2022/04/25 11:31:25;;;;;;;1.25;1.15;;;;;;;;;;5116993;28;20061;-46
2022/04/25 11:34:05;;;;;;;2.25;1.55;;;;;;;;;;5116999;28;20435;-47
2022/04/25 11:36:36;;;;;;;0.85;0.68;;;;;;;;;;5116607;28;20118;-47
2022/04/25 11:41:46;;;;;;;0.65;0.63;;;;;;;;;;5116407;28;20450;-44
2022/04/25 11:44:12;;;;;;;1.13;0.80;;;;;;;;;;5116653;28;20051;-47
2022/04/25 11:46:37;;;;;;;1.23;1.13;;;;;;;;;;5116488;28;20024;-45
2022/04/25 11:49:08;;;;;;;1.92;0.80;;;;;;;;;;5115472;28;20043;-44
2022/04/25 11:51:35;;;;;;;0.52;0.50;;;;;;;;;;5115950;28;20111;-41
2022/04/25 11:54:04;;;;;;;1.42;0.55;;;;;;;;;;5115035;28;20027;-52
2022/04/25 11:56:32;;;;;;;0.77;0.52;;;;;;;;;;5116107;28;20560;-48
2022/04/25 11:58:58;;;;;;;2.55;0.65;;;;;;;;;;5116099;28;20149;-48
2022/04/25 12:01:36;;;;;;;0.75;0.75;;;;;;;;;;5115926;28;20485;-45
2022/04/25 12:04:20;;;;;;;2.80;1.95;;;;;;;;;;5115930;28;20063;-49
2022/04/25 12:07:02;;;;;;;0.90;0.90;;;;;;;;;;5115671;28;20532;-46
2022/04/25 12:18:13;;;;;;;0.50;0.50;;;;;;;;;;5115883;28;20022;-50
2022/04/25 12:20:40;;;;;;;3.40;2.40;;;;;;;;;;5115830;28;20034;-43
2022/04/25 12:23:06;;;;;;;0.90;0.90;;;;;;;;;;5115620;28;20032;-49
2022/04/25 12:25:34;;;;;;;1.75;1.17;;;;;;;;;;5101284;28;20028;-48
2022/04/25 12:28:03;;;;;;;1.48;1.02;;;;;;;;;;5085496;28;20039;-50
2022/04/25 12:30:30;;;;;;;1.73;1.25;;;;;;;;;;5086406;28;20086;-51
2022/04/25 12:33:09;;;;;;;1.40;1.25;;;;;;;;;;5094696;28;20093;-50
2022/04/25 12:35:36;;;;;;;4.38;2.10;;;;;;;;;;5095095;28;20116;-47
2022/04/25 12:38:06;;;;;;;1.15;1.10;;;;;;;;;;5095217;28;20019;-48
2022/04/25 12:40:33;;;;;;;2.25;1.60;;;;;;;;;;5094391;28;20463;-45
2022/04/25 12:42:58;;;;;;;2.55;1.38;;;;;;;;;;5095060;28;20431;-49
2022/04/25 12:45:24;;;;;;;2.50;1.70;;;;;;;;;;5094856;28;20095;-45
2022/04/25 12:47:59;;;;;;;3.38;1.90;;;;;;;;;;5094806;28;20043;-49
2022/04/25 12:50:43;;;;;;;1.92;1.13;;;;;;;;;;5094626;28;20028;-49
2022/04/25 12:53:11;;;;;;;2.17;1.50;;;;;;;;;;5094864;28;20412;-44
2022/04/25 12:55:49;;;;;;;1.20;0.90;;;;;;;;;;5094104;28;20028;-50
2022/04/25 12:58:16;;;;;;;2.22;1.63;;;;;;;;;;5094707;28;20023;-50
2022/04/25 13:00:45;;;;;;;2.05;1.15;;;;;;;;;;5094405;28;20032;-41
2022/04/25 13:03:12;;;;;;;1.38;1.20;;;;;;;;;;5094431;28;20028;-42
2022/04/25 13:05:38;;;;;;;2.35;1.10;;;;;;;;;;5094623;28;20500;-50
2022/04/25 13:08:03;;;;;;;1.88;0.80;;;;;;;;;;5094746;28;20028;-45
2022/04/25 13:10:30;;;;;;;2.63;1.90;;;;;;;;;;5094362;28;20115;-48
2022/04/25 13:12:56;;;;;;;3.25;1.23;;;;;;;;;;5093565;28;20035;-46
2022/04/25 13:15:25;;;;;;;2.35;1.30;;;;;;;;;;5093377;28;20360;-45
2022/04/25 13:17:58;;;;;;;1.40;1.27;;;;;;;;;;5093991;28;20536;-49
2022/04/25 13:20:28;;;;;;;0.55;0.55;;;;;;;;;;5092640;28;20043;-49
2022/04/25 13:22:53;;;;;;;1.48;1.38;;;;;;;;;;5092873;28;20028;-46
2022/04/25 13:25:22;;;;;;;1.15;1.02;;;;;;;;;;5092752;28;20035;-50
2022/04/25 13:27:48;;;;;;;4.43;1.00;;;;;;;;;;5092359;28;20032;-47
2022/04/25 13:30:14;;;;;;;1.45;1.00;;;;;;;;;;5092770;28;20024;-51
2022/04/25 13:32:43;;;;;;;4.82;2.47;;;;;;;;;;5092576;28;20036;-49
2022/04/25 13:35:14;;;;;;;1.52;0.90;;;;;;;;;;5092622;28;20020;-52
2022/04/25 13:37:41;;;;;;;1.90;1.80;;;;;;;;;;5092235;28;20028;-49
2022/04/25 13:40:07;;;;;;;2.28;1.90;;;;;;;;;;5092089;28;20036;-53
2022/04/25 13:42:32;;;;;;;2.30;2.00;;;;;;;;;;5092064;28;20020;-50
2022/04/25 13:44:58;;;;;;;3.72;3.03;;;;;;;;;;5092490;28;20042;-48
2022/04/25 13:47:24;;;;;;;0.90;0.80;;;;;;;;;;5092281;28;20093;-45
2022/04/25 13:49:49;;;;;;;1.05;0.73;;;;;;;;;;5091874;28;20127;-48
2022/04/25 13:52:15;;;;;;;2.50;2.30;;;;;;;;;;5091475;28;20115;-50
2022/04/25 13:54:40;;;;;;;4.35;2.28;;;;;;;;;;5091767;28;20529;-49
2022/04/25 13:57:06;;;;;;;1.67;1.55;;;;;;;;;;5092011;28;20063;-48
2022/04/25 13:59:32;;;;;;;4.70;1.33;;;;;;;;;;5091733;28;20083;-48
2022/04/25 14:03:05;;;;;;;1.67;0.73;;;;;;;;;;5092040;28;20424;-48
2022/04/25 14:04:43;;;;;;;11.60;2.50;;;;;;;;;;5091467;28;20032;-47
2022/04/25 14:07:08;;;;;;;11.88;1.40;;;;;;;;;;5091620;28;20028;-46
2022/04/25 14:09:34;;;;;;;0.88;0.80;;;;;;;;;;5091750;28;20028;-50
2022/04/25 14:11:59;;;;;;;1.75;0.80;;;;;;;;;;5091564;28;20039;-49
2022/04/25 14:14:25;;;;;;;0.60;0.60;;;;;;;;;;5091816;28;20034;-54
2022/04/25 14:16:51;;;;;;;0.70;0.70;;;;;;;;;;5091582;28;20475;-52
2022/04/25 14:19:16;;;;;;;2.03;0.85;;;;;;;;;;5091370;28;20028;-44
2022/04/25 14:21:41;;;;;;;1.05;0.95;;;;;;;;;;5090433;28;20077;-51
2022/04/25 14:24:07;;;;;;;2.25;1.10;;;;;;;;;;5091584;28;20111;-52
2022/04/25 14:26:34;;;;;;;5.82;1.67;;;;;;;;;;5091296;28;20372;-52
2022/04/25 14:29:00;;;;;;;0.60;0.60;;;;;;;;;;5091714;28;20048;-50
2022/04/25 14:31:25;;;;;;;1.77;0.70;;;;;;;;;;5091082;28;20060;-48
2022/04/25 14:33:50;;;;;;;0.73;0.63;;;;;;;;;;5091014;28;20028;-46
2022/04/25 14:36:16;;;;;;;0.90;0.70;;;;;;;;;;5091295;28;20035;-46
2022/04/25 14:38:41;;;;;;;0.50;0.47;;;;;;;;;;5091143;28;20024;-49
2022/04/25 14:41:07;;;;;;;1.02;0.70;;;;;;;;;;5090705;28;20033;-49
2022/04/25 14:43:35;;;;;;;0.75;0.60;;;;;;;;;;5091154;28;20069;-48
2022/04/25 14:46:00;;;;;;;0.82;0.80;;;;;;;;;;5091258;28;20046;-47
2022/04/25 14:48:26;;;;;;;1.95;0.80;;;;;;;;;;5090748;28;20059;-44
2022/04/25 14:56:21;;;;;;;0.80;0.80;;;;;;;;;;5090996;28;20567;-50
2022/04/25 14:58:46;;;;;;;0.80;0.80;;;;;;;;;;5090707;28;20119;-52
2022/04/25 15:01:12;;;;;;;0.93;0.70;;;;;;;;;;5090716;28;20115;-45
2022/04/25 15:03:37;;;;;;;0.80;0.70;;;;;;;;;;5096029;28;20045;-49
2022/04/25 15:06:02;;;;;;;3.53;0.90;;;;;;;;;;5097764;28;20046;-50
2022/04/25 15:08:28;;;;;;;0.75;0.60;;;;;;;;;;5096652;28;20031;-51
2022/04/25 15:10:53;;;;;;;0.60;0.60;;;;;;;;;;5096625;28;20032;-47
2022/04/25 15:13:19;;;;;;;11.75;2.63;;;;;;;;;;5097052;28;20635;-51
2022/04/25 15:15:44;;;;;;;2.72;0.63;;;;;;;;;;5096522;28;20028;-49
2022/04/25 15:18:10;;;;;;;0.60;0.60;;;;;;;;;;5097247;28;20201;-51
2022/04/25 15:20:37;;;;;;;10.43;1.65;;;;;;;;;;5097091;28;20444;-51
2022/04/25 15:23:06;;;;;;;2.85;0.75;;;;;;;;;;5097048;28;20028;-51
2022/04/25 15:25:32;;;;;;;5.05;1.05;;;;;;;;;;5097545;28;20409;-50
2022/04/25 15:28:03;;;;;;;1.73;0.75;;;;;;;;;;5096553;28;20039;-49
2022/04/25 15:30:29;;;;;;;0.93;0.60;;;;;;;;;;5096489;28;20077;-48
2022/04/25 15:32:54;;;;;;;0.70;0.70;;;;;;;;;;5095850;28;20020;-44
2022/04/25 15:35:20;;;;;;;0.45;0.35;;;;;;;;;;5095852;28;20683;-49
2022/04/25 15:37:45;;;;;;;2.15;0.95;;;;;;;;;;5095924;28;20028;-47